Time,TemperatureF,DewpointF,PressureIn,WindDirection,WindDirectionDegrees,WindSpeedMPH,WindSpeedGustMPH,Humidity,HourlyPrecipIn,Conditions,Clouds,dailyrainin,SoftwareType,DateUTC
2013-01-30 00:01:00,44.7,41.1,22.12,North,357,0.0,0.0,87,0.00,,---,0.00,VWS V13.01,2013-01-30 08:01:00,
2013-01-30 00:06:00,44.6,41.0,22.12,North,357,0.0,0.0,87,0.00,,---,0.00,VWS V13.01,2013-01-30 08:06:00,
2013-01-30 00:11:00,44.5,40.9,22.12,North,357,0.0,0.0,87,0.00,,---,0.00,VWS V13.01,2013-01-30 08:11:00,
2013-01-30 00:16:00,44.3,40.7,22.11,North,357,0.0,0.0,87,0.00,,---,0.00,VWS V13.01,2013-01-30 08:16:00,
2013-01-30 00:21:00,44.1,40.5,22.11,North,357,0.0,0.0,87,0.00,,---,0.00,VWS V13.01,2013-01-30 08:21:00,
2013-01-30 00:26:00,43.8,40.5,22.12,North,357,0.0,0.0,88,0.00,,---,0.00,VWS V13.01,2013-01-30 08:26:00,
2013-01-30 00:31:00,43.5,39.9,22.12,North,357,0.0,0.0,87,0.00,,---,0.00,VWS V13.01,2013-01-30 08:31:00,
2013-01-30 00:36:00,43.4,40.1,22.12,North,356,0.0,0.0,88,0.00,,---,0.00,VWS V13.01,2013-01-30 08:36:00,
2013-01-30 00:41:00,43.3,40.0,22.12,North,356,0.0,0.0,88,0.00,,---,0.00,VWS V13.01,2013-01-30 08:41:00,
2013-01-30 00:46:00,43.2,39.9,22.12,North,356,0.0,0.0,88,0.00,,---,0.00,VWS V13.01,2013-01-30 08:46:00,
2013-01-30 00:51:00,42.9,39.3,22.11,North,357,0.0,0.0,87,0.00,,---,0.00,VWS V13.01,2013-01-30 08:51:00,
2013-01-30 00:56:00,42.8,39.5,22.12,North,357,0.0,0.0,88,0.00,,---,0.00,VWS V13.01,2013-01-30 08:56:00,
2013-01-30 01:01:00,42.8,39.5,22.11,North,357,0.0,0.0,88,0.00,,---,0.00,VWS V13.01,2013-01-30 09:01:00,
2013-01-30 01:06:00,42.7,39.4,22.11,North,357,0.0,0.0,88,0.00,,---,0.00,VWS V13.01,2013-01-30 09:06:00,
2013-01-30 01:11:00,42.8,39.5,22.11,North,356,0.0,0.0,88,0.00,,---,0.00,VWS V13.01,2013-01-30 09:11:00,
2013-01-30 01:16:00,42.8,39.5,22.11,North,357,0.0,0.0,88,0.00,,---,0.00,VWS V13.01,2013-01-30 09:16:00,
2013-01-30 01:21:00,42.5,38.9,22.11,North,357,0.0,0.0,87,0.00,,---,0.00,VWS V13.01,2013-01-30 09:21:00,
2013-01-30 01:26:00,42.3,38.7,22.11,North,357,0.0,0.0,87,0.00,,---,0.00,VWS V13.01,2013-01-30 09:26:00,
2013-01-30 01:31:00,42.2,38.9,22.11,North,356,0.0,0.0,88,0.00,,---,0.00,VWS V13.01,2013-01-30 09:31:00,
2013-01-30 01:36:00,42.2,38.9,22.11,North,357,0.0,0.0,88,0.00,,---,0.00,VWS V13.01,2013-01-30 09:36:00,
2013-01-30 01:41:00,42.3,38.7,22.12,North,357,0.0,0.0,87,0.00,,---,0.00,VWS V13.01,2013-01-30 09:41:00,
2013-01-30 01:46:00,42.3,38.7,22.11,North,357,0.0,3.0,87,0.00,,---,0.00,VWS V13.01,2013-01-30 09:46:00,
2013-01-30 01:51:00,42.3,39.0,22.12,North,356,0.0,5.0,88,0.00,,---,0.00,VWS V13.01,2013-01-30 09:51:00,
2013-01-30 01:56:00,42.3,39.0,22.12,North,356,0.0,5.0,88,0.00,,---,0.00,VWS V13.01,2013-01-30 09:56:00,
2013-01-30 02:01:00,42.4,39.1,22.12,North,357,0.0,0.0,88,0.00,,---,0.00,VWS V13.01,2013-01-30 10:01:00,
2013-01-30 02:06:00,42.3,39.0,22.12,North,357,0.0,1.0,88,0.00,,---,0.00,VWS V13.01,2013-01-30 10:06:00,
2013-01-30 02:11:00,42.2,38.6,22.12,North,357,0.0,1.0,87,0.00,,---,0.00,VWS V13.01,2013-01-30 10:11:00,
2013-01-30 02:16:00,42.1,38.5,22.12,North,357,0.0,1.0,87,0.00,,---,0.00,VWS V13.01,2013-01-30 10:16:00,
2013-01-30 02:21:00,42.0,38.4,22.12,North,357,0.0,1.0,87,0.00,,---,0.00,VWS V13.01,2013-01-30 10:21:00,
2013-01-30 02:26:00,42.0,38.4,22.12,North,357,0.0,3.0,87,0.00,,---,0.00,VWS V13.01,2013-01-30 10:26:00,
2013-01-30 02:31:00,41.8,38.2,22.12,North,357,0.0,0.0,87,0.00,,---,0.00,VWS V13.01,2013-01-30 10:31:00,
2013-01-30 02:36:00,41.7,38.1,22.12,North,357,0.0,0.0,87,0.00,,---,0.00,VWS V13.01,2013-01-30 10:36:00,
2013-01-30 02:41:00,41.4,37.8,22.12,North,357,0.0,0.0,87,0.00,,---,0.00,VWS V13.01,2013-01-30 10:41:00,
2013-01-30 02:46:00,41.1,37.8,22.12,North,357,0.0,0.0,88,0.00,,---,0.00,VWS V13.01,2013-01-30 10:46:00,
2013-01-30 02:51:00,40.9,37.6,22.13,North,357,0.0,0.0,88,0.00,,---,0.00,VWS V13.01,2013-01-30 10:51:00,
2013-01-30 02:56:00,41.1,37.8,22.12,North,357,2.0,3.0,88,0.00,,---,0.00,VWS V13.01,2013-01-30 10:56:00,
2013-01-30 03:01:00,41.1,37.8,22.12,North,357,1.0,1.0,88,0.00,,---,0.00,VWS V13.01,2013-01-30 11:01:00,
2013-01-30 03:06:00,41.1,38.1,22.12,North,357,0.0,2.0,89,0.00,,---,0.00,VWS V13.01,2013-01-30 11:06:00,
2013-01-30 03:11:00,41.1,38.1,22.12,North,354,2.0,3.0,89,0.00,,---,0.00,VWS V13.01,2013-01-30 11:11:00,
2013-01-30 03:16:00,41.2,38.2,22.12,NNE,12,2.0,3.0,89,0.00,,---,0.00,VWS V13.01,2013-01-30 11:16:00,
2013-01-30 03:21:00,41.3,38.3,22.12,NNE,12,0.0,3.0,89,0.00,,---,0.00,VWS V13.01,2013-01-30 11:21:00,
2013-01-30 03:26:00,41.5,38.2,22.11,NNE,12,0.0,3.0,88,0.00,,---,0.00,VWS V13.01,2013-01-30 11:26:00,
2013-01-30 03:31:00,41.3,38.0,22.12,NNE,12,0.0,0.0,88,0.00,,---,0.00,VWS V13.01,2013-01-30 11:31:00,
2013-01-30 03:36:00,41.2,37.9,22.12,NNE,12,0.0,0.0,88,0.00,,---,0.00,VWS V13.01,2013-01-30 11:36:00,
2013-01-30 03:41:00,41.0,37.7,22.12,NNE,12,0.0,0.0,88,0.00,,---,0.00,VWS V13.01,2013-01-30 11:41:00,
2013-01-30 03:46:00,40.9,37.6,22.12,NNE,12,0.0,0.0,88,0.00,,---,0.00,VWS V13.01,2013-01-30 11:46:00,
2013-01-30 03:51:00,40.6,37.3,22.12,NNE,12,0.0,0.0,88,0.00,,---,0.00,VWS V13.01,2013-01-30 11:51:00,
2013-01-30 03:56:00,40.6,37.6,22.11,NNE,12,0.0,3.0,89,0.00,,---,0.00,VWS V13.01,2013-01-30 11:56:00,
2013-01-30 04:01:00,40.5,37.5,22.11,NNE,12,0.0,0.0,89,0.00,,---,0.00,VWS V13.01,2013-01-30 12:01:00,
2013-01-30 04:06:00,40.4,37.4,22.11,NNE,12,0.0,0.0,89,0.00,,---,0.00,VWS V13.01,2013-01-30 12:06:00,
2013-01-30 04:11:00,40.3,37.0,22.11,NNE,12,0.0,0.0,88,0.00,,---,0.00,VWS V13.01,2013-01-30 12:11:00,
2013-01-30 04:16:00,40.3,37.3,22.11,NNE,12,0.0,0.0,89,0.00,,---,0.00,VWS V13.01,2013-01-30 12:16:00,
2013-01-30 04:21:00,40.1,37.1,22.11,NNE,12,0.0,0.0,89,0.00,,---,0.00,VWS V13.01,2013-01-30 12:21:00,
2013-01-30 04:26:00,40.0,37.0,22.11,NNE,12,0.0,0.0,89,0.00,,---,0.00,VWS V13.01,2013-01-30 12:26:00,
2013-01-30 04:32:00,39.9,36.9,22.11,NNE,12,0.0,0.0,89,0.00,,---,0.00,VWS V13.01,2013-01-30 12:32:00,
2013-01-30 04:37:00,39.8,36.8,22.11,NNE,12,0.0,0.0,89,0.00,,---,0.00,VWS V13.01,2013-01-30 12:37:00,
2013-01-30 04:42:00,39.7,37.0,22.11,NNE,12,0.0,0.0,90,0.00,,---,0.00,VWS V13.01,2013-01-30 12:42:00,
2013-01-30 04:47:00,39.6,36.6,22.11,NNE,12,0.0,0.0,89,0.00,,---,0.00,VWS V13.01,2013-01-30 12:47:00,
2013-01-30 04:52:00,39.5,36.8,22.11,NNE,12,0.0,0.0,90,0.00,,---,0.00,VWS V13.01,2013-01-30 12:52:00,
2013-01-30 04:57:00,39.7,37.0,22.12,NNE,12,0.0,0.0,90,0.00,,---,0.00,VWS V13.01,2013-01-30 12:57:00,
2013-01-30 05:02:00,39.7,37.0,22.11,NNE,12,0.0,0.0,90,0.00,,---,0.00,VWS V13.01,2013-01-30 13:02:00,
2013-01-30 05:07:00,39.5,36.8,22.12,NNE,12,0.0,0.0,90,0.00,,---,0.00,VWS V13.01,2013-01-30 13:07:00,
2013-01-30 05:12:00,39.4,37.0,22.11,NNE,12,0.0,2.0,91,0.00,,---,0.00,VWS V13.01,2013-01-30 13:12:00,
2013-01-30 05:17:00,39.5,37.1,22.12,NNE,12,3.0,3.0,91,0.00,,---,0.00,VWS V13.01,2013-01-30 13:17:00,
2013-01-30 05:22:00,39.6,37.2,22.12,NNE,12,0.0,3.0,91,0.00,,---,0.00,VWS V13.01,2013-01-30 13:22:00,
2013-01-30 05:27:00,39.7,37.3,22.12,NNE,12,1.0,3.0,91,0.00,,---,0.00,VWS V13.01,2013-01-30 13:27:00,
2013-01-30 05:32:00,39.8,37.4,22.12,NNE,13,0.0,1.0,91,0.00,,---,0.00,VWS V13.01,2013-01-30 13:32:00,
2013-01-30 05:37:00,39.9,37.5,22.12,NNE,13,0.0,2.0,91,0.00,,---,0.00,VWS V13.01,2013-01-30 13:37:00,
2013-01-30 05:42:00,39.8,37.4,22.12,NNE,13,0.0,2.0,91,0.00,,---,0.00,VWS V13.01,2013-01-30 13:42:00,
2013-01-30 05:47:00,39.7,37.3,22.12,NNE,13,0.0,2.0,91,0.00,,---,0.00,VWS V13.01,2013-01-30 13:47:00,
2013-01-30 05:52:00,39.7,37.3,22.12,NNE,13,2.0,2.0,91,0.00,,---,0.00,VWS V13.01,2013-01-30 13:52:00,
2013-01-30 05:57:00,39.7,37.3,22.12,NE,56,0.0,4.0,91,0.00,,---,0.00,VWS V13.01,2013-01-30 13:57:00,
2013-01-30 06:02:00,39.7,37.3,22.13,NE,56,0.0,0.0,91,0.00,,---,0.00,VWS V13.01,2013-01-30 14:02:00,
2013-01-30 06:07:00,39.7,37.0,22.13,NE,56,2.0,2.0,90,0.00,,---,0.00,VWS V13.01,2013-01-30 14:07:00,
2013-01-30 06:12:00,39.7,37.3,22.13,NE,56,0.0,2.0,91,0.00,,---,0.00,VWS V13.01,2013-01-30 14:12:00,
2013-01-30 06:17:00,39.7,37.3,22.12,NE,56,0.0,2.0,91,0.00,,---,0.00,VWS V13.01,2013-01-30 14:17:00,
2013-01-30 06:22:00,39.7,37.0,22.13,NE,56,2.0,2.0,90,0.00,,---,0.00,VWS V13.01,2013-01-30 14:22:00,
2013-01-30 06:27:00,39.6,36.9,22.13,NE,56,0.0,3.0,90,0.00,,---,0.00,VWS V13.01,2013-01-30 14:27:00,
2013-01-30 06:32:00,39.4,36.7,22.13,NE,56,0.0,0.0,90,0.00,,---,0.00,VWS V13.01,2013-01-30 14:32:00,
2013-01-30 06:37:00,39.4,37.0,22.14,NE,56,0.0,0.0,91,0.00,,---,0.00,VWS V13.01,2013-01-30 14:37:00,
2013-01-30 06:42:00,39.2,36.5,22.14,NE,56,0.0,0.0,90,0.00,,---,0.00,VWS V13.01,2013-01-30 14:42:00,
2013-01-30 06:47:00,39.1,36.4,22.14,NE,56,0.0,0.0,90,0.00,,---,0.00,VWS V13.01,2013-01-30 14:47:00,
2013-01-30 06:52:00,38.9,36.2,22.14,NE,56,0.0,0.0,90,0.00,,---,0.00,VWS V13.01,2013-01-30 14:52:00,
2013-01-30 06:57:00,38.7,36.3,22.14,NE,56,0.0,0.0,91,0.00,,---,0.00,VWS V13.01,2013-01-30 14:57:00,
2013-01-30 07:02:00,38.4,35.7,22.15,NE,56,0.0,0.0,90,0.00,,---,0.00,VWS V13.01,2013-01-30 15:02:00,
2013-01-30 07:07:00,38.3,36.2,22.15,NE,56,0.0,0.0,92,0.00,,---,0.00,VWS V13.01,2013-01-30 15:07:00,
2013-01-30 07:12:00,38.4,36.0,22.15,NE,56,0.0,0.0,91,0.00,,---,0.00,VWS V13.01,2013-01-30 15:12:00,
2013-01-30 07:17:00,38.5,36.4,22.15,NE,56,1.0,2.0,92,0.00,,---,0.00,VWS V13.01,2013-01-30 15:17:00,
2013-01-30 07:22:00,38.6,36.5,22.15,NE,56,0.0,2.0,92,0.00,,---,0.00,VWS V13.01,2013-01-30 15:22:00,
2013-01-30 07:27:00,38.7,36.6,22.15,NE,56,0.0,2.0,92,0.00,,---,0.00,VWS V13.01,2013-01-30 15:27:00,
2013-01-30 07:32:00,38.9,36.8,22.16,NE,56,0.0,0.0,92,0.00,,---,0.00,VWS V13.01,2013-01-30 15:32:00,
2013-01-30 07:37:00,38.9,36.8,22.16,NE,56,0.0,0.0,92,0.00,,---,0.00,VWS V13.01,2013-01-30 15:37:00,
2013-01-30 07:42:00,39.1,37.0,22.16,NE,56,0.0,0.0,92,0.00,,---,0.00,VWS V13.01,2013-01-30 15:42:00,
2013-01-30 07:47:00,39.2,36.8,22.16,NE,56,0.0,0.0,91,0.00,,---,0.00,VWS V13.01,2013-01-30 15:47:00,
2013-01-30 07:52:00,39.2,36.8,22.17,NE,56,0.0,0.0,91,0.00,,---,0.00,VWS V13.01,2013-01-30 15:52:00,
2013-01-30 07:57:00,39.3,37.2,22.17,NE,56,0.0,0.0,92,0.00,,---,0.00,VWS V13.01,2013-01-30 15:57:00,
2013-01-30 08:02:00,39.7,37.6,22.17,NE,56,0.0,1.0,92,0.00,,---,0.00,VWS V13.01,2013-01-30 16:02:00,
2013-01-30 08:07:00,40.1,38.0,22.16,NE,56,0.0,1.0,92,0.00,,---,0.00,VWS V13.01,2013-01-30 16:07:00,
2013-01-30 08:12:00,40.4,38.0,22.17,NE,56,1.0,3.0,91,0.00,,---,0.00,VWS V13.01,2013-01-30 16:12:00,
2013-01-30 08:17:00,40.9,38.5,22.17,NE,56,0.0,3.0,91,0.00,,---,0.00,VWS V13.01,2013-01-30 16:17:00,
2013-01-30 08:22:00,41.1,38.4,22.17,NE,56,0.0,3.0,90,0.00,,---,0.00,VWS V13.01,2013-01-30 16:22:00,
2013-01-30 08:27:00,41.5,38.8,22.18,NE,56,0.0,3.0,90,0.00,,---,0.00,VWS V13.01,2013-01-30 16:27:00,
2013-01-30 08:32:00,41.8,39.1,22.18,NE,56,0.0,1.0,90,0.00,,---,0.00,VWS V13.01,2013-01-30 16:32:00,
2013-01-30 08:37:00,42.3,39.6,22.18,NE,56,1.0,2.0,90,0.00,,---,0.00,VWS V13.01,2013-01-30 16:37:00,
2013-01-30 08:43:00,42.9,39.9,22.18,NE,56,0.0,2.0,89,0.00,,---,0.00,VWS V13.01,2013-01-30 16:43:00,
2013-01-30 08:48:00,43.5,40.2,22.18,NE,56,1.0,2.0,88,0.00,,---,0.00,VWS V13.01,2013-01-30 16:48:00,
2013-01-30 08:53:00,44.0,40.7,22.18,NE,56,0.0,2.0,88,0.00,,---,0.00,VWS V13.01,2013-01-30 16:53:00,
2013-01-30 08:58:00,44.4,40.8,22.18,NE,56,0.0,3.0,87,0.00,,---,0.00,VWS V13.01,2013-01-30 16:58:00,
2013-01-30 09:03:00,45.0,41.1,22.18,ENE,57,1.0,2.0,86,0.00,,---,0.00,VWS V13.01,2013-01-30 17:03:00,
2013-01-30 09:08:00,45.6,41.7,22.18,ESE,121,3.0,7.0,86,0.00,,---,0.00,VWS V13.01,2013-01-30 17:08:00,
2013-01-30 09:13:00,46.2,42.0,22.18,ESE,117,3.0,7.0,85,0.00,,---,0.00,VWS V13.01,2013-01-30 17:13:00,
2013-01-30 09:18:00,46.8,42.2,22.18,SE,125,4.0,8.0,84,0.00,,---,0.00,VWS V13.01,2013-01-30 17:18:00,
2013-01-30 09:23:00,47.2,42.3,22.17,ESE,123,3.0,8.0,83,0.00,,---,0.00,VWS V13.01,2013-01-30 17:23:00,
2013-01-30 09:28:00,47.7,42.8,22.18,ESE,108,5.0,8.0,83,0.00,,---,0.00,VWS V13.01,2013-01-30 17:28:00,
2013-01-30 09:33:00,48.2,43.0,22.17,ESE,120,3.0,8.0,82,0.00,,---,0.00,VWS V13.01,2013-01-30 17:33:00,
2013-01-30 09:38:00,48.5,43.0,22.18,ESE,113,3.0,8.0,81,0.00,,---,0.00,VWS V13.01,2013-01-30 17:38:00,
2013-01-30 09:43:00,48.8,42.9,22.17,ESE,115,5.0,10.0,80,0.00,,---,0.00,VWS V13.01,2013-01-30 17:43:00,
2013-01-30 09:48:00,49.2,43.3,22.18,ESE,122,5.0,10.0,80,0.00,,---,0.00,VWS V13.01,2013-01-30 17:48:00,
2013-01-30 09:53:00,49.4,43.5,22.17,SE,125,4.0,10.0,80,0.00,,---,0.00,VWS V13.01,2013-01-30 17:53:00,
2013-01-30 09:58:00,49.7,43.5,22.17,SSE,153,3.0,10.0,79,0.00,,---,0.00,VWS V13.01,2013-01-30 17:58:00,
2013-01-30 10:03:00,49.8,43.6,22.17,SE,129,3.0,7.0,79,0.00,,---,0.00,VWS V13.01,2013-01-30 18:03:00,
2013-01-30 10:08:00,50.2,44.0,22.17,ESE,109,5.0,7.0,79,0.00,,---,0.00,VWS V13.01,2013-01-30 18:08:00,
2013-01-30 10:13:00,50.7,44.4,22.17,SE,124,6.0,8.0,79,0.00,,---,0.00,VWS V13.01,2013-01-30 18:13:00,
2013-01-30 10:18:00,51.1,44.5,22.17,ESE,117,6.0,8.0,78,0.00,,---,0.00,VWS V13.01,2013-01-30 18:18:00,
2013-01-30 10:24:00,51.5,44.5,22.17,ESE,120,4.0,8.0,77,0.00,,---,0.00,VWS V13.01,2013-01-30 18:24:00,
2013-01-30 10:29:00,52.0,45.0,22.17,ESE,122,5.0,8.0,77,0.00,,---,0.00,VWS V13.01,2013-01-30 18:29:00,
2013-01-30 10:34:00,52.4,45.1,22.17,ESE,115,4.0,7.0,76,0.00,,---,0.00,VWS V13.01,2013-01-30 18:34:00,
2013-01-30 10:39:00,52.9,45.5,22.17,ESE,122,3.0,7.0,76,0.00,,---,0.00,VWS V13.01,2013-01-30 18:39:00,
2013-01-30 10:44:00,53.3,45.6,22.17,ESE,122,4.0,7.0,75,0.00,,---,0.00,VWS V13.01,2013-01-30 18:44:00,
2013-01-30 10:49:00,53.6,45.9,22.17,SE,146,4.0,7.0,75,0.00,,---,0.00,VWS V13.01,2013-01-30 18:49:00,
2013-01-30 10:54:00,54.1,46.0,22.17,SE,127,4.0,8.0,74,0.00,,---,0.00,VWS V13.01,2013-01-30 18:54:00,
2013-01-30 10:59:00,54.3,46.2,22.17,SSE,154,3.0,8.0,74,0.00,,---,0.00,VWS V13.01,2013-01-30 18:59:00,
2013-01-30 11:04:00,54.6,46.1,22.16,SE,126,4.0,7.0,73,0.00,,---,0.00,VWS V13.01,2013-01-30 19:04:00,
2013-01-30 11:09:00,55.0,46.5,22.16,ESE,121,3.0,7.0,73,0.00,,---,0.00,VWS V13.01,2013-01-30 19:09:00,
2013-01-30 11:14:00,55.3,46.8,22.16,SE,126,3.0,7.0,73,0.00,,---,0.00,VWS V13.01,2013-01-30 19:14:00,
2013-01-30 11:19:00,55.6,46.7,22.16,SE,128,6.0,7.0,72,0.00,,---,0.00,VWS V13.01,2013-01-30 19:19:00,
2013-01-30 11:24:00,55.8,46.5,22.15,ESE,117,4.0,7.0,71,0.00,,---,0.00,VWS V13.01,2013-01-30 19:24:00,
2013-01-30 11:29:00,56.3,47.4,22.14,ESE,116,3.0,7.0,72,0.00,,---,0.00,VWS V13.01,2013-01-30 19:29:00,
2013-01-30 11:34:00,56.5,47.2,22.14,ESE,123,4.0,6.0,71,0.00,,---,0.00,VWS V13.01,2013-01-30 19:34:00,
2013-01-30 11:39:00,56.9,47.2,22.14,ESE,120,4.0,8.0,70,0.00,,---,0.00,VWS V13.01,2013-01-30 19:39:00,
2013-01-30 11:44:00,57.2,47.9,22.14,ESE,114,6.0,9.0,71,0.00,,---,0.00,VWS V13.01,2013-01-30 19:44:00,
2013-01-30 11:49:00,57.5,47.4,22.13,SSE,164,5.0,9.0,69,0.00,,---,0.00,VWS V13.01,2013-01-30 19:49:00,
2013-01-30 11:54:00,57.6,47.5,22.13,SE,129,5.0,9.0,69,0.00,,---,0.00,VWS V13.01,2013-01-30 19:54:00,
2013-01-30 11:59:00,57.9,48.2,22.12,SE,128,3.0,9.0,70,0.00,,---,0.00,VWS V13.01,2013-01-30 19:59:00,
2013-01-30 12:04:00,58.1,48.0,22.12,ESE,111,4.0,8.0,69,0.00,,---,0.00,VWS V13.01,2013-01-30 20:04:00,
2013-01-30 12:09:00,58.3,48.6,22.12,ESE,121,5.0,8.0,70,0.00,,---,0.00,VWS V13.01,2013-01-30 20:09:00,
2013-01-30 12:14:00,58.5,48.4,22.12,SE,128,4.0,8.0,69,0.00,,---,0.00,VWS V13.01,2013-01-30 20:14:00,
2013-01-30 12:19:00,58.9,49.2,22.12,ESE,115,1.0,8.0,70,0.00,,---,0.00,VWS V13.01,2013-01-30 20:19:00,
2013-01-30 12:24:00,59.2,48.7,22.11,SE,136,3.0,8.0,68,0.00,,---,0.00,VWS V13.01,2013-01-30 20:24:00,
2013-01-30 12:29:00,59.4,48.5,22.11,SE,136,5.0,8.0,67,0.00,,---,0.00,VWS V13.01,2013-01-30 20:29:00,
2013-01-30 12:34:00,59.5,48.5,22.11,SE,134,4.0,7.0,67,0.00,,---,0.00,VWS V13.01,2013-01-30 20:34:00,
2013-01-30 12:39:00,59.8,48.4,22.11,ESE,123,2.0,8.0,66,0.00,,---,0.00,VWS V13.01,2013-01-30 20:39:00,
2013-01-30 12:44:00,60.0,49.0,22.10,ESE,123,4.0,8.0,67,0.00,,---,0.00,VWS V13.01,2013-01-30 20:44:00,
2013-01-30 12:49:00,60.3,48.9,22.10,ESE,121,4.0,8.0,66,0.00,,---,0.00,VWS V13.01,2013-01-30 20:49:00,
2013-01-30 12:54:00,60.5,49.1,22.10,ESE,121,2.0,8.0,66,0.00,,---,0.00,VWS V13.01,2013-01-30 20:54:00,
2013-01-30 12:59:00,60.7,49.3,22.10,ESE,118,2.0,8.0,66,0.00,,---,0.00,VWS V13.01,2013-01-30 20:59:00,
2013-01-30 13:04:00,60.9,48.7,22.10,ESE,118,2.0,5.0,64,0.00,,---,0.00,VWS V13.01,2013-01-30 21:04:00,
2013-01-30 13:09:00,61.2,48.9,22.09,SSE,154,5.0,7.0,64,0.00,,---,0.00,VWS V13.01,2013-01-30 21:09:00,
2013-01-30 13:14:00,61.3,49.0,22.09,SSE,155,2.0,7.0,64,0.00,,---,0.00,VWS V13.01,2013-01-30 21:14:00,
2013-01-30 13:19:00,61.1,49.3,22.09,SSE,153,3.0,7.0,65,0.00,,---,0.00,VWS V13.01,2013-01-30 21:19:00,
2013-01-30 13:24:00,61.4,49.1,22.09,SE,135,6.0,7.0,64,0.00,,---,0.00,VWS V13.01,2013-01-30 21:24:00,
2013-01-30 13:29:00,61.4,49.5,22.08,SE,134,2.0,7.0,65,0.00,,---,0.00,VWS V13.01,2013-01-30 21:29:00,
2013-01-30 13:34:00,61.5,49.2,22.08,SE,131,4.0,6.0,64,0.00,,---,0.00,VWS V13.01,2013-01-30 21:34:00,
2013-01-30 13:39:00,61.7,49.0,22.08,SE,129,0.0,6.0,63,0.00,,---,0.00,VWS V13.01,2013-01-30 21:39:00,
2013-01-30 13:44:00,61.3,49.0,22.07,SSW,208,4.0,6.0,64,0.00,,---,0.00,VWS V13.01,2013-01-30 21:44:00,
2013-01-30 13:49:00,61.5,48.8,22.07,South,181,4.0,6.0,63,0.00,,---,0.00,VWS V13.01,2013-01-30 21:49:00,
2013-01-30 13:54:00,61.3,48.6,22.07,South,187,3.0,6.0,63,0.00,,---,0.00,VWS V13.01,2013-01-30 21:54:00,
2013-01-30 13:59:00,61.5,48.8,22.07,SSE,156,2.0,6.0,63,0.00,,---,0.00,VWS V13.01,2013-01-30 21:59:00,
2013-01-30 14:04:00,61.7,49.0,22.07,ESE,121,3.0,6.0,63,0.00,,---,0.00,VWS V13.01,2013-01-30 22:04:00,
2013-01-30 14:09:00,61.8,49.1,22.06,ESE,122,3.0,6.0,63,0.00,,---,0.00,VWS V13.01,2013-01-30 22:09:00,
2013-01-30 14:14:00,62.0,49.3,22.06,ESE,122,2.0,6.0,63,0.00,,---,0.00,VWS V13.01,2013-01-30 22:14:00,
2013-01-30 14:19:00,61.8,48.7,22.07,SE,137,2.0,6.0,62,0.00,,---,0.00,VWS V13.01,2013-01-30 22:19:00,
2013-01-30 14:24:00,61.6,47.6,22.06,SE,136,0.0,6.0,60,0.00,,---,0.00,VWS V13.01,2013-01-30 22:24:00,
2013-01-30 14:29:00,61.4,48.7,22.06,SE,143,0.0,7.0,63,0.00,,---,0.00,VWS V13.01,2013-01-30 22:29:00,
2013-01-30 14:34:00,61.6,48.9,22.06,SSE,158,2.0,4.0,63,0.00,,---,0.00,VWS V13.01,2013-01-30 22:34:00,
2013-01-30 14:39:00,61.5,48.8,22.06,SW,227,2.0,6.0,63,0.00,,---,0.00,VWS V13.01,2013-01-30 22:39:00,
2013-01-30 14:44:00,61.8,49.1,22.06,SE,129,2.0,6.0,63,0.00,,---,0.00,VWS V13.01,2013-01-30 22:44:00,
2013-01-30 14:49:00,61.9,49.2,22.07,SE,130,5.0,8.0,63,0.00,,---,0.00,VWS V13.01,2013-01-30 22:49:00,
2013-01-30 14:54:00,61.9,48.8,22.07,South,170,4.0,8.0,62,0.00,,---,0.00,VWS V13.01,2013-01-30 22:54:00,
2013-01-30 14:59:00,61.9,49.2,22.06,SE,142,4.0,8.0,63,0.00,,---,0.00,VWS V13.01,2013-01-30 22:59:00,
2013-01-30 15:04:00,62.0,49.3,22.06,SE,132,1.0,5.0,63,0.00,,---,0.00,VWS V13.01,2013-01-30 23:04:00,
2013-01-30 15:09:00,61.8,48.2,22.06,SE,132,0.0,5.0,61,0.00,,---,0.00,VWS V13.01,2013-01-30 23:09:00,
2013-01-30 15:14:00,61.7,49.0,22.06,SE,144,4.0,6.0,63,0.00,,---,0.00,VWS V13.01,2013-01-30 23:14:00,
2013-01-30 15:19:00,62.0,48.4,22.06,SE,127,3.0,6.0,61,0.00,,---,0.00,VWS V13.01,2013-01-30 23:19:00,
2013-01-30 15:24:00,62.0,48.8,22.06,SE,128,3.0,6.0,62,0.00,,---,0.00,VWS V13.01,2013-01-30 23:24:00,
2013-01-30 15:29:00,62.1,49.4,22.06,SE,130,3.0,6.0,63,0.00,,---,0.00,VWS V13.01,2013-01-30 23:29:00,
2013-01-30 15:34:00,62.1,48.9,22.06,ESE,112,3.0,4.0,62,0.00,,---,0.00,VWS V13.01,2013-01-30 23:34:00,
2013-01-30 15:39:00,62.0,48.8,22.06,ESE,112,1.0,5.0,62,0.00,,---,0.00,VWS V13.01,2013-01-30 23:39:00,
2013-01-30 15:44:00,62.0,48.4,22.06,ESE,123,3.0,7.0,61,0.00,,---,0.00,VWS V13.01,2013-01-30 23:44:00,
2013-01-30 15:49:00,62.0,48.8,22.06,SE,125,0.0,7.0,62,0.00,,---,0.00,VWS V13.01,2013-01-30 23:49:00,
2013-01-30 15:54:00,61.7,48.6,22.06,SE,125,2.0,7.0,62,0.00,,---,0.00,VWS V13.01,2013-01-30 23:54:00,
2013-01-30 15:59:00,61.6,48.9,22.06,SE,125,2.0,7.0,63,0.00,,---,0.00,VWS V13.01,2013-01-30 23:59:00,
2013-01-30 16:04:00,61.5,48.4,22.06,SE,125,3.0,5.0,62,0.00,,---,0.00,VWS V13.01,2013-01-31 00:04:00,
2013-01-30 16:09:00,61.4,48.3,22.05,SE,126,2.0,5.0,62,0.00,,---,0.00,VWS V13.01,2013-01-31 00:09:00,
2013-01-30 16:14:00,61.3,48.2,22.06,SE,129,2.0,5.0,62,0.00,,---,0.00,VWS V13.01,2013-01-31 00:14:00,
2013-01-30 16:19:00,61.0,48.3,22.06,SE,129,1.0,5.0,63,0.00,,---,0.00,VWS V13.01,2013-01-31 00:19:00,
2013-01-30 16:24:00,60.7,48.0,22.05,SE,129,3.0,5.0,63,0.00,,---,0.00,VWS V13.01,2013-01-31 00:24:00,
2013-01-30 16:29:00,60.6,48.0,22.06,SE,129,2.0,5.0,63,0.00,,---,0.00,VWS V13.01,2013-01-31 00:29:00,
2013-01-30 16:34:00,60.5,47.9,22.06,SE,129,3.0,4.0,63,0.00,,---,0.00,VWS V13.01,2013-01-31 00:34:00,
2013-01-30 16:40:00,60.4,47.8,22.06,SE,129,4.0,4.0,63,0.00,,---,0.00,VWS V13.01,2013-01-31 00:40:00,
2013-01-30 16:45:00,60.3,47.7,22.06,SE,129,2.0,4.0,63,0.00,,---,0.00,VWS V13.01,2013-01-31 00:45:00,
2013-01-30 16:50:00,60.1,47.9,22.06,SE,129,1.0,4.0,64,0.00,,---,0.00,VWS V13.01,2013-01-31 00:50:00,
2013-01-30 16:55:00,59.8,47.6,22.06,SE,129,2.0,4.0,64,0.00,,---,0.00,VWS V13.01,2013-01-31 00:55:00,
2013-01-30 17:00:00,59.7,47.9,22.06,SE,129,2.0,4.0,65,0.00,,---,0.00,VWS V13.01,2013-01-31 01:00:00,
2013-01-30 17:05:00,59.5,48.2,22.07,SE,129,2.0,2.0,66,0.00,,---,0.00,VWS V13.01,2013-01-31 01:05:00,
2013-01-30 17:10:00,59.2,47.9,22.06,SE,129,0.0,2.0,66,0.00,,---,0.00,VWS V13.01,2013-01-31 01:10:00,
2013-01-30 17:15:00,58.8,47.9,22.06,SE,129,0.0,2.0,67,0.00,,---,0.00,VWS V13.01,2013-01-31 01:15:00,
2013-01-30 17:20:00,58.2,47.7,22.06,SE,129,0.0,2.0,68,0.00,,---,0.00,VWS V13.01,2013-01-31 01:20:00,
2013-01-30 17:25:00,57.6,47.1,22.06,SE,129,0.0,2.0,68,0.00,,---,0.00,VWS V13.01,2013-01-31 01:25:00,
2013-01-30 17:30:00,56.9,46.8,22.07,SE,129,0.0,2.0,69,0.00,,---,0.00,VWS V13.01,2013-01-31 01:30:00,
2013-01-30 17:35:00,56.1,46.5,22.06,SE,129,0.0,0.0,70,0.00,,---,0.00,VWS V13.01,2013-01-31 01:35:00,
2013-01-30 17:40:00,55.8,46.5,22.06,SE,129,0.0,0.0,71,0.00,,---,0.00,VWS V13.01,2013-01-31 01:40:00,
2013-01-30 17:45:00,55.9,46.7,22.06,SE,129,0.0,0.0,71,0.00,,---,0.00,VWS V13.01,2013-01-31 01:45:00,
2013-01-30 17:50:00,55.2,46.0,22.07,SE,129,0.0,0.0,71,0.00,,---,0.00,VWS V13.01,2013-01-31 01:50:00,
2013-01-30 17:55:00,54.7,45.9,22.07,SE,129,0.0,0.0,72,0.00,,---,0.00,VWS V13.01,2013-01-31 01:55:00,
2013-01-30 18:00:00,54.0,45.5,22.07,SE,129,0.0,0.0,73,0.00,,---,0.00,VWS V13.01,2013-01-31 02:00:00,
2013-01-30 18:05:00,53.4,45.0,22.07,SE,129,0.0,0.0,73,0.00,,---,0.00,VWS V13.01,2013-01-31 02:05:00,
2013-01-30 18:10:00,53.0,44.6,22.07,SE,129,0.0,0.0,73,0.00,,---,0.00,VWS V13.01,2013-01-31 02:10:00,
2013-01-30 18:15:00,52.6,44.9,22.07,SE,129,0.0,0.0,75,0.00,,---,0.00,VWS V13.01,2013-01-31 02:15:00,
2013-01-30 18:20:00,52.3,44.6,22.07,SE,129,0.0,0.0,75,0.00,,---,0.00,VWS V13.01,2013-01-31 02:20:00,
2013-01-30 18:25:00,51.9,44.6,22.08,SE,129,0.0,0.0,76,0.00,,---,0.00,VWS V13.01,2013-01-31 02:25:00,
2013-01-30 18:30:00,51.5,44.2,22.08,SE,129,0.0,0.0,76,0.00,,---,0.00,VWS V13.01,2013-01-31 02:30:00,
2013-01-30 18:35:00,51.2,44.2,22.08,SE,129,0.0,0.0,77,0.00,,---,0.00,VWS V13.01,2013-01-31 02:35:00,
2013-01-30 18:40:00,51.2,44.2,22.08,SE,129,0.0,0.0,77,0.00,,---,0.00,VWS V13.01,2013-01-31 02:40:00,
2013-01-30 18:45:00,51.1,44.2,22.08,SE,129,0.0,0.0,77,0.00,,---,0.00,VWS V13.01,2013-01-31 02:45:00,
2013-01-30 18:50:00,50.9,44.3,22.08,SE,129,0.0,0.0,78,0.00,,---,0.00,VWS V13.01,2013-01-31 02:50:00,
2013-01-30 18:55:00,50.5,43.6,22.08,SE,129,0.0,0.0,77,0.00,,---,0.00,VWS V13.01,2013-01-31 02:55:00,
2013-01-30 19:00:00,50.2,43.6,22.08,SE,129,0.0,0.0,78,0.00,,---,0.00,VWS V13.01,2013-01-31 03:00:00,
2013-01-30 19:05:00,49.9,43.3,22.08,SE,129,0.0,0.0,78,0.00,,---,0.00,VWS V13.01,2013-01-31 03:05:00,
2013-01-30 19:10:00,49.7,43.8,22.08,SE,129,0.0,0.0,80,0.00,,---,0.00,VWS V13.01,2013-01-31 03:10:00,
2013-01-30 19:15:00,49.4,43.2,22.09,SE,129,0.0,0.0,79,0.00,,---,0.00,VWS V13.01,2013-01-31 03:15:00,
2013-01-30 19:20:00,49.5,43.6,22.08,SE,129,0.0,0.0,80,0.00,,---,0.00,VWS V13.01,2013-01-31 03:20:00,
2013-01-30 19:25:00,49.3,43.4,22.08,SE,129,0.0,0.0,80,0.00,,---,0.00,VWS V13.01,2013-01-31 03:25:00,
2013-01-30 19:30:00,49.2,43.6,22.09,SE,129,0.0,0.0,81,0.00,,---,0.00,VWS V13.01,2013-01-31 03:30:00,
2013-01-30 19:35:00,49.0,43.1,22.08,SE,129,0.0,0.0,80,0.00,,---,0.00,VWS V13.01,2013-01-31 03:35:00,
2013-01-30 19:40:00,48.5,43.0,22.08,SE,129,0.0,0.0,81,0.00,,---,0.00,VWS V13.01,2013-01-31 03:40:00,
2013-01-30 19:45:00,48.4,42.8,22.08,SE,129,0.0,0.0,81,0.00,,---,0.00,VWS V13.01,2013-01-31 03:45:00,
2013-01-30 19:50:00,48.2,42.7,22.09,SE,129,0.0,0.0,81,0.00,,---,0.00,VWS V13.01,2013-01-31 03:50:00,
2013-01-30 19:55:00,47.9,42.4,22.08,SE,129,0.0,0.0,81,0.00,,---,0.00,VWS V13.01,2013-01-31 03:55:00,
2013-01-30 20:00:00,47.5,42.3,22.08,SE,129,0.0,0.0,82,0.00,,---,0.00,VWS V13.01,2013-01-31 04:00:00,
2013-01-30 20:05:00,47.6,42.4,22.09,SE,129,0.0,0.0,82,0.00,,---,0.00,VWS V13.01,2013-01-31 04:05:00,
2013-01-30 20:10:00,47.5,42.3,22.09,SE,129,0.0,0.0,82,0.00,,---,0.00,VWS V13.01,2013-01-31 04:10:00,
2013-01-30 20:15:00,47.3,42.1,22.09,SE,129,0.0,0.0,82,0.00,,---,0.00,VWS V13.01,2013-01-31 04:15:00,
2013-01-30 20:20:00,47.0,42.1,22.09,SE,129,0.0,0.0,83,0.00,,---,0.00,VWS V13.01,2013-01-31 04:20:00,
2013-01-30 20:25:00,46.8,41.9,22.09,SE,129,0.0,0.0,83,0.00,,---,0.00,VWS V13.01,2013-01-31 04:25:00,
2013-01-30 20:30:00,46.6,42.0,22.09,SE,129,0.0,0.0,84,0.00,,---,0.00,VWS V13.01,2013-01-31 04:30:00,
2013-01-30 20:35:00,46.5,41.6,22.09,SE,129,0.0,0.0,83,0.00,,---,0.00,VWS V13.01,2013-01-31 04:35:00,
2013-01-30 20:40:00,46.5,41.9,22.09,SE,129,0.0,0.0,84,0.00,,---,0.00,VWS V13.01,2013-01-31 04:40:00,
2013-01-30 20:45:00,46.4,41.8,22.09,SE,129,0.0,0.0,84,0.00,,---,0.00,VWS V13.01,2013-01-31 04:45:00,
2013-01-30 20:50:00,46.3,41.7,22.09,SE,129,0.0,0.0,84,0.00,,---,0.00,VWS V13.01,2013-01-31 04:50:00,
2013-01-30 20:55:00,46.2,41.6,22.09,SE,129,0.0,0.0,84,0.00,,---,0.00,VWS V13.01,2013-01-31 04:55:00,
2013-01-30 21:00:00,46.1,41.8,22.09,SE,129,0.0,0.0,85,0.00,,---,0.00,VWS V13.01,2013-01-31 05:00:00,
2013-01-30 21:02:00,46.1,41.8,22.09,SE,129,0.0,0.0,85,0.00,,---,0.00,VWS V13.01,2013-01-31 05:02:00,
2013-01-30 21:03:00,46.1,41.8,22.09,SE,129,0.0,0.0,85,0.00,,---,0.00,VWS V13.01,2013-01-31 05:03:00,
2013-01-30 21:08:00,46.1,41.8,22.09,SE,129,0.0,0.0,85,0.00,,---,0.00,VWS V13.01,2013-01-31 05:08:00,
2013-01-30 21:13:00,45.9,41.7,22.09,SE,129,0.0,0.0,85,0.00,,---,0.00,VWS V13.01,2013-01-31 05:13:00,
2013-01-30 21:18:00,45.7,41.5,22.09,SE,129,0.0,0.0,85,0.00,,---,0.00,VWS V13.01,2013-01-31 05:18:00,
2013-01-30 21:23:00,45.6,41.4,22.10,SE,129,0.0,0.0,85,0.00,,---,0.00,VWS V13.01,2013-01-31 05:23:00,
2013-01-30 21:28:00,45.2,41.0,22.10,SE,129,0.0,0.0,85,0.00,,---,0.00,VWS V13.01,2013-01-31 05:28:00,
2013-01-30 21:33:00,44.8,40.9,22.10,SE,129,0.0,0.0,86,0.00,,---,0.00,VWS V13.01,2013-01-31 05:33:00,
2013-01-30 21:38:00,44.7,40.8,22.10,SE,129,0.0,0.0,86,0.00,,---,0.00,VWS V13.01,2013-01-31 05:38:00,
2013-01-30 21:43:00,44.6,41.0,22.10,SE,129,0.0,0.0,87,0.00,,---,0.00,VWS V13.01,2013-01-31 05:43:00,
2013-01-30 21:48:00,44.5,40.9,22.10,SE,129,0.0,0.0,87,0.00,,---,0.00,VWS V13.01,2013-01-31 05:48:00,
2013-01-30 21:53:00,44.4,40.8,22.10,SE,129,0.0,0.0,87,0.00,,---,0.00,VWS V13.01,2013-01-31 05:53:00,
2013-01-30 21:58:00,44.4,41.1,22.10,SE,129,0.0,0.0,88,0.00,,---,0.00,VWS V13.01,2013-01-31 05:58:00,
2013-01-30 22:03:00,44.3,41.3,22.10,SE,129,0.0,0.0,89,0.00,,---,0.00,VWS V13.01,2013-01-31 06:03:00,
2013-01-30 22:08:00,44.3,41.3,22.10,SE,129,0.0,0.0,89,0.00,,---,0.00,VWS V13.01,2013-01-31 06:08:00,
2013-01-30 22:13:00,44.3,41.3,22.10,SE,129,0.0,0.0,89,0.00,,---,0.00,VWS V13.01,2013-01-31 06:13:00,
2013-01-30 22:18:00,44.3,41.0,22.10,SE,129,0.0,0.0,88,0.00,,---,0.00,VWS V13.01,2013-01-31 06:18:00,
2013-01-30 22:23:00,44.1,40.8,22.10,SE,129,0.0,0.0,88,0.00,,---,0.00,VWS V13.01,2013-01-31 06:23:00,
2013-01-30 22:28:00,44.1,41.1,22.10,SE,129,0.0,0.0,89,0.00,,---,0.00,VWS V13.01,2013-01-31 06:28:00,
2013-01-30 22:34:00,44.0,41.0,22.10,SE,129,0.0,0.0,89,0.00,,---,0.00,VWS V13.01,2013-01-31 06:34:00,
2013-01-30 22:39:00,44.2,41.7,22.10,SE,129,0.0,0.0,91,0.00,,---,0.00,VWS V13.01,2013-01-31 06:39:00,
2013-01-30 22:44:00,44.3,41.6,22.10,SE,129,0.0,0.0,90,0.00,,---,0.00,VWS V13.01,2013-01-31 06:44:00,
2013-01-30 22:49:00,44.3,41.6,22.10,SE,129,0.0,0.0,90,0.00,,---,0.00,VWS V13.01,2013-01-31 06:49:00,
2013-01-30 22:54:00,44.3,41.6,22.11,SE,129,0.0,0.0,90,0.00,,---,0.00,VWS V13.01,2013-01-31 06:54:00,
2013-01-30 22:59:00,44.3,41.6,22.11,SE,129,0.0,0.0,90,0.00,,---,0.00,VWS V13.01,2013-01-31 06:59:00,
2013-01-30 23:04:00,44.2,41.5,22.11,SE,129,0.0,0.0,90,0.00,,---,0.00,VWS V13.01,2013-01-31 07:04:00,
2013-01-30 23:09:00,44.1,41.4,22.11,SE,129,0.0,0.0,90,0.00,,---,0.00,VWS V13.01,2013-01-31 07:09:00,
2013-01-30 23:14:00,44.1,41.4,22.11,SE,129,0.0,0.0,90,0.00,,---,0.00,VWS V13.01,2013-01-31 07:14:00,
2013-01-30 23:19:00,44.0,41.3,22.11,SE,129,0.0,0.0,90,0.00,,---,0.00,VWS V13.01,2013-01-31 07:19:00,
2013-01-30 23:24:00,44.0,41.5,22.11,SE,129,0.0,0.0,91,0.00,,---,0.00,VWS V13.01,2013-01-31 07:24:00,
2013-01-30 23:29:00,43.9,41.5,22.11,SE,129,0.0,0.0,91,0.00,,---,0.00,VWS V13.01,2013-01-31 07:29:00,
2013-01-30 23:34:00,43.9,41.5,22.11,SE,129,0.0,0.0,91,0.00,,---,0.00,VWS V13.01,2013-01-31 07:34:00,
2013-01-30 23:39:00,43.9,41.5,22.11,SE,129,0.0,0.0,91,0.00,,---,0.00,VWS V13.01,2013-01-31 07:39:00,
2013-01-30 23:44:00,43.9,41.5,22.11,SE,129,0.0,0.0,91,0.00,,---,0.00,VWS V13.01,2013-01-31 07:44:00,
2013-01-30 23:49:00,43.8,41.3,22.11,SE,129,0.0,0.0,91,0.00,,---,0.00,VWS V13.01,2013-01-31 07:49:00,
2013-01-30 23:54:00,43.6,41.2,22.11,SE,129,0.0,0.0,91,0.00,,---,0.00,VWS V13.01,2013-01-31 07:54:00,
2013-01-30 23:59:00,43.6,41.2,22.12,SE,129,0.0,0.0,91,0.00,,---,0.00,VWS V13.01,2013-01-31 07:59:00,